createdAt,value
2018-09-26T00:02:04.260Z,99.90
2018-09-26T00:04:34.812Z,99.90
2018-09-26T00:07:03.956Z,99.90
2018-09-26T00:09:33.250Z,99.90
2018-09-26T00:12:02.319Z,99.90
2018-09-26T00:14:32.074Z,99.90
2018-09-26T00:17:01.073Z,99.90
2018-09-26T00:19:30.284Z,99.90
2018-09-26T00:21:59.812Z,99.90
2018-09-26T00:24:29.167Z,99.90
2018-09-26T00:26:58.697Z,99.90
2018-09-26T00:29:28.607Z,99.90
2018-09-26T00:31:58.201Z,99.90
2018-09-26T00:34:27.792Z,99.90
2018-09-26T00:36:57.348Z,99.90
2018-09-26T00:39:26.491Z,99.90
2018-09-26T00:41:55.660Z,99.90
2018-09-26T00:44:25.133Z,99.90
2018-09-26T00:46:54.506Z,99.90
2018-09-26T00:49:23.599Z,99.90
2018-09-26T00:51:52.680Z,99.90
2018-09-26T00:54:22.123Z,99.90
2018-09-26T00:56:51.431Z,99.90
2018-09-26T00:59:20.884Z,99.90
2018-09-26T01:01:49.915Z,99.90
2018-09-26T01:04:19.316Z,99.90
2018-09-26T01:06:48.463Z,99.90
2018-09-26T01:09:17.973Z,99.90
2018-09-26T01:11:47.224Z,99.90
2018-09-26T01:14:16.384Z,99.90
2018-09-26T01:16:45.617Z,99.90
2018-09-26T01:19:14.985Z,99.90
2018-09-26T01:21:44.724Z,99.90
2018-09-26T01:24:13.981Z,99.90
2018-09-26T01:26:43.385Z,99.90
2018-09-26T01:29:12.728Z,99.90
2018-09-26T01:31:42.333Z,99.90
2018-09-26T01:34:12.056Z,99.90
2018-09-26T01:36:41.230Z,99.90
2018-09-26T01:39:10.765Z,99.90
2018-09-26T01:41:39.892Z,99.90
2018-09-26T01:44:09.135Z,99.90
2018-09-26T01:46:38.539Z,99.90
2018-09-26T01:49:07.603Z,99.90
2018-09-26T01:51:36.820Z,99.90
2018-09-26T01:54:06.292Z,99.90
2018-09-26T01:56:35.427Z,99.90
2018-09-26T01:59:04.913Z,99.90
2018-09-26T02:01:34.027Z,99.90
2018-09-26T02:04:04.248Z,99.90
2018-09-26T02:06:33.280Z,99.90
2018-09-26T02:09:02.863Z,99.90
2018-09-26T02:11:32.425Z,99.90
2018-09-26T02:14:01.588Z,99.90
2018-09-26T02:16:30.936Z,99.90
2018-09-26T02:19:00.132Z,99.90
2018-09-26T02:21:29.497Z,99.90
2018-09-26T02:23:58.900Z,99.90
2018-09-26T02:26:27.908Z,99.90
2018-09-26T02:28:56.892Z,99.90
2018-09-26T02:31:26.481Z,99.90
2018-09-26T02:33:55.851Z,99.90
2018-09-26T02:36:24.890Z,99.90
2018-09-26T02:38:54.116Z,99.90
2018-09-26T02:41:23.416Z,99.90
2018-09-26T02:43:52.794Z,99.90
2018-09-26T02:46:22.075Z,99.90
2018-09-26T02:48:56.613Z,99.90
2018-09-26T02:51:25.773Z,99.90
2018-09-26T02:53:54.901Z,99.90
2018-09-26T02:56:24.133Z,99.90
2018-09-26T02:58:53.323Z,99.90
2018-09-26T03:01:22.699Z,99.90
2018-09-26T03:03:51.926Z,99.90
2018-09-26T03:06:21.465Z,99.90
2018-09-26T03:08:50.603Z,99.90
2018-09-26T03:11:19.737Z,99.90
2018-09-26T03:13:48.964Z,99.90
2018-09-26T03:16:18.324Z,99.90
2018-09-26T03:18:47.488Z,99.90
2018-09-26T03:21:16.864Z,99.90
2018-09-26T03:23:45.876Z,99.90
2018-09-26T03:26:15.687Z,99.90
2018-09-26T03:28:44.698Z,99.90
2018-09-26T03:31:14.131Z,99.90
2018-09-26T03:33:43.543Z,99.90
2018-09-26T03:36:12.861Z,99.90
2018-09-26T03:38:42.282Z,99.90
2018-09-26T03:41:11.875Z,99.90
2018-09-26T03:43:41.120Z,99.90
2018-09-26T03:46:10.325Z,99.90
2018-09-26T03:48:39.464Z,99.90
2018-09-26T03:51:08.960Z,99.90
2018-09-26T03:53:38.138Z,99.90
2018-09-26T03:56:07.352Z,99.90
2018-09-26T03:58:36.712Z,99.90
2018-09-26T04:01:05.769Z,99.90
2018-09-26T04:03:34.866Z,99.90
2018-09-26T04:06:04.132Z,99.90
2018-09-26T04:08:33.247Z,99.90
2018-09-26T04:11:02.492Z,99.90
2018-09-26T04:13:31.679Z,99.90
2018-09-26T04:16:00.767Z,99.90
2018-09-26T04:18:29.924Z,99.90
2018-09-26T04:20:59.119Z,99.90
2018-09-26T04:23:28.480Z,99.90
2018-09-26T04:25:57.960Z,99.90
2018-09-26T04:28:27.590Z,99.90
2018-09-26T04:30:56.679Z,99.90
2018-09-26T04:33:26.041Z,99.90
2018-09-26T04:35:55.610Z,99.90
2018-09-26T04:38:24.647Z,99.90
2018-09-26T04:40:53.890Z,99.90
2018-09-26T04:43:23.308Z,99.90
2018-09-26T04:45:52.482Z,99.90
2018-09-26T04:48:21.847Z,99.90
2018-09-26T04:50:51.457Z,99.90
2018-09-26T04:53:20.488Z,99.90
2018-09-26T04:55:49.681Z,99.90
2018-09-26T04:58:18.960Z,99.90
2018-09-26T05:00:48.109Z,99.90
2018-09-26T05:03:17.367Z,99.90
2018-09-26T05:05:46.788Z,99.90
2018-09-26T05:08:16.450Z,99.90
2018-09-26T05:10:45.366Z,99.90
2018-09-26T05:13:14.616Z,99.90
2018-09-26T05:15:43.823Z,99.90
2018-09-26T05:18:13.511Z,99.90
2018-09-26T05:20:42.715Z,99.90
2018-09-26T05:23:12.047Z,99.90
2018-09-26T05:25:41.479Z,99.90
2018-09-26T05:28:11.461Z,99.90
2018-09-26T05:30:40.585Z,99.90
2018-09-26T05:33:09.760Z,99.90
2018-09-26T05:35:39.113Z,99.90
2018-09-26T05:38:08.395Z,99.90
2018-09-26T05:40:37.741Z,99.90
2018-09-26T05:43:06.870Z,99.90
2018-09-26T05:45:36.520Z,99.90
2018-09-26T05:48:05.825Z,99.90
2018-09-26T05:50:35.385Z,99.90
2018-09-26T05:53:04.777Z,99.90
2018-09-26T05:55:33.945Z,99.90
2018-09-26T05:58:03.281Z,99.90
2018-09-26T06:00:32.471Z,99.90
2018-09-26T06:03:01.969Z,99.90
2018-09-26T06:05:31.794Z,99.90
2018-09-26T06:08:00.823Z,99.90
2018-09-26T06:10:30.509Z,99.90
2018-09-26T06:12:59.769Z,99.90
2018-09-26T06:15:29.254Z,99.90
2018-09-26T06:17:58.476Z,99.90
2018-09-26T06:20:28.138Z,99.90
2018-09-26T06:22:57.682Z,99.90
2018-09-26T06:25:27.200Z,99.90
2018-09-26T06:27:56.610Z,99.90
2018-09-26T06:30:25.812Z,99.90
2018-09-26T06:32:55.321Z,99.90
2018-09-26T06:35:24.880Z,99.90
2018-09-26T06:37:54.497Z,99.90
2018-09-26T06:40:24.006Z,99.90
2018-09-26T06:42:53.420Z,99.90
2018-09-26T06:45:22.981Z,99.90
2018-09-26T06:47:52.073Z,99.90
2018-09-26T06:50:21.187Z,99.90
2018-09-26T06:52:52.139Z,99.90
2018-09-26T06:55:21.875Z,99.90
2018-09-26T06:57:51.362Z,99.90
2018-09-26T07:00:21.171Z,99.90
2018-09-26T07:02:50.611Z,99.90
2018-09-26T07:05:20.880Z,99.90
2018-09-26T07:07:50.512Z,99.90
2018-09-26T07:10:19.944Z,99.90
2018-09-26T07:12:49.454Z,99.90
2018-09-26T07:15:18.980Z,99.90
2018-09-26T07:17:48.158Z,99.90
2018-09-26T07:20:17.847Z,99.90
2018-09-26T07:22:47.264Z,99.90
2018-09-26T07:25:16.410Z,99.90
2018-09-26T07:27:45.923Z,99.90
2018-09-26T07:30:15.300Z,99.90
2018-09-26T07:32:44.507Z,99.90
2018-09-26T07:35:13.740Z,99.90
2018-09-26T07:37:43.406Z,99.90
2018-09-26T07:40:12.651Z,99.90
2018-09-26T07:42:43.136Z,99.90
2018-09-26T07:45:12.655Z,99.90
2018-09-26T07:47:42.041Z,99.90
2018-09-26T07:50:11.918Z,99.90
2018-09-26T07:52:41.287Z,99.90
2018-09-26T07:55:10.620Z,99.90
2018-09-26T07:57:39.854Z,99.90
2018-09-26T08:00:09.410Z,99.90
2018-09-26T08:02:38.827Z,99.90
2018-09-26T08:05:07.940Z,99.90
2018-09-26T08:07:37.192Z,99.90
2018-09-26T08:10:06.634Z,99.90
2018-09-26T08:12:36.272Z,99.90
2018-09-26T08:15:05.647Z,99.90
2018-09-26T08:17:35.019Z,99.90
2018-09-26T08:20:05.030Z,99.90
2018-09-26T08:22:34.367Z,99.90
2018-09-26T08:25:03.793Z,99.90
2018-09-26T08:27:33.224Z,99.90
2018-09-26T08:30:02.721Z,99.90
2018-09-26T08:32:32.277Z,99.90
2018-09-26T08:35:01.725Z,99.90
2018-09-26T08:37:31.200Z,99.90
2018-09-26T08:40:00.709Z,99.90
2018-09-26T08:42:30.495Z,99.90
2018-09-26T08:44:59.960Z,99.90
2018-09-26T08:47:29.371Z,99.90
2018-09-26T08:49:58.657Z,99.90
2018-09-26T08:52:28.034Z,99.90
2018-09-26T08:54:57.284Z,99.90
2018-09-26T08:57:26.904Z,99.90
2018-09-26T08:59:56.062Z,99.90
2018-09-26T09:02:25.386Z,99.90
2018-09-26T09:04:54.864Z,97.30
2018-09-26T09:07:23.967Z,99.20
2018-09-26T09:09:53.418Z,99.10
2018-09-26T09:12:22.817Z,99.20
2018-09-26T09:14:52.666Z,94.70
2018-09-26T09:17:21.807Z,99.90
2018-09-26T09:19:51.132Z,92.80
2018-09-26T09:22:20.660Z,90.90
2018-09-26T09:24:50.663Z,90.90
2018-09-26T09:27:20.605Z,83.30
2018-09-26T09:29:49.770Z,86.00
2018-09-26T09:32:18.972Z,81.10
2018-09-26T09:34:48.473Z,78.20
2018-09-26T09:37:17.645Z,80.20
2018-09-26T09:39:47.306Z,73.90
2018-09-26T09:42:17.036Z,75.80
2018-09-26T09:44:46.403Z,74.40
2018-09-26T09:47:15.537Z,69.80
2018-09-26T09:49:45.089Z,73.10
2018-09-26T09:52:14.899Z,69.50
2018-09-26T09:54:49.856Z,72.40
2018-09-26T09:57:18.980Z,73.70
2018-09-26T09:59:48.331Z,69.70
2018-09-26T10:02:17.821Z,70.60
2018-09-26T10:04:47.069Z,71.00
2018-09-26T10:07:16.482Z,70.80
2018-09-26T10:09:45.895Z,72.90
2018-09-26T10:12:15.051Z,65.30
2018-09-26T10:14:44.655Z,66.20
2018-09-26T10:17:14.201Z,65.00
2018-09-26T10:19:43.639Z,67.10
2018-09-26T10:22:13.447Z,67.70
2018-09-26T10:24:42.834Z,66.80
2018-09-26T10:27:11.897Z,69.20
2018-09-26T10:29:41.311Z,64.60
2018-09-26T10:32:11.005Z,70.20
2018-09-26T10:34:40.468Z,70.10
2018-09-26T10:37:09.781Z,64.50
2018-09-26T10:39:39.198Z,65.80
2018-09-26T10:42:08.376Z,66.50
2018-09-26T10:44:38.179Z,66.30
2018-09-26T10:47:07.456Z,69.80
2018-09-26T10:49:36.962Z,62.70
2018-09-26T10:52:06.449Z,64.70
2018-09-26T10:54:36.057Z,61.30
2018-09-26T10:57:05.343Z,68.00
2018-09-26T10:59:34.568Z,67.90
2018-09-26T11:02:03.795Z,66.90
2018-09-26T11:04:32.770Z,65.10
2018-09-26T11:07:02.901Z,67.70
2018-09-26T11:09:32.266Z,60.90
2018-09-26T11:12:01.584Z,65.60
2018-09-26T11:14:31.056Z,60.40
2018-09-26T11:17:00.469Z,65.40
2018-09-26T11:19:29.702Z,68.90
2018-09-26T11:21:59.434Z,63.80
2018-09-26T11:24:28.884Z,60.00
2018-09-26T11:26:57.864Z,63.80
2018-09-26T11:29:27.188Z,60.10
2018-09-26T11:31:56.534Z,62.50
2018-09-26T11:34:26.110Z,58.70
2018-09-26T11:36:55.496Z,61.80
2018-09-26T11:39:25.552Z,62.50
2018-09-26T11:41:54.705Z,60.40
2018-09-26T11:44:23.924Z,58.10
2018-09-26T11:46:53.488Z,61.60
2018-09-26T11:49:22.965Z,61.10
2018-09-26T11:51:52.545Z,59.60
2018-09-26T11:54:22.102Z,61.40
2018-09-26T11:56:51.380Z,61.90
2018-09-26T11:59:20.627Z,58.40
2018-09-26T12:01:49.824Z,61.70
2018-09-26T12:04:19.116Z,60.10
2018-09-26T12:06:48.249Z,65.90
2018-09-26T12:09:17.935Z,60.80
2018-09-26T12:11:47.233Z,62.60
2018-09-26T12:14:16.678Z,62.20
2018-09-26T12:16:46.136Z,59.00
2018-09-26T12:19:15.469Z,58.90
2018-09-26T12:21:44.668Z,61.20
2018-09-26T12:24:14.170Z,62.00
2018-09-26T12:26:43.384Z,67.50
2018-09-26T12:29:13.326Z,65.00
2018-09-26T12:31:42.595Z,61.70
2018-09-26T12:34:12.076Z,61.50
2018-09-26T12:36:41.461Z,59.20
2018-09-26T12:39:11.491Z,63.00
2018-09-26T12:41:40.953Z,59.50
2018-09-26T12:44:10.374Z,61.20
2018-09-26T12:46:39.800Z,61.50
2018-09-26T12:49:09.055Z,59.50
2018-09-26T12:51:38.959Z,59.00
2018-09-26T12:54:08.472Z,58.40
2018-09-26T12:56:38.052Z,61.10
2018-09-26T12:59:07.337Z,57.50
2018-09-26T13:01:36.470Z,57.80
2018-09-26T13:04:06.017Z,58.30
2018-09-26T13:06:35.431Z,57.20
2018-09-26T13:09:06.021Z,59.20
2018-09-26T13:11:35.072Z,58.90
2018-09-26T13:14:04.585Z,57.90
2018-09-26T13:16:33.855Z,57.60
2018-09-26T13:19:03.134Z,57.00
2018-09-26T13:21:32.491Z,56.60
2018-09-26T13:24:01.688Z,59.30
2018-09-26T13:26:31.378Z,60.10
2018-09-26T13:29:00.693Z,57.10
2018-09-26T13:31:30.199Z,57.90
2018-09-26T13:34:00.723Z,57.40
2018-09-26T13:36:29.987Z,58.80
2018-09-26T13:38:59.623Z,59.20
2018-09-26T13:41:30.007Z,60.60
2018-09-26T13:43:59.575Z,58.80
2018-09-26T13:46:28.864Z,59.70
2018-09-26T13:48:58.447Z,59.00
2018-09-26T13:51:27.757Z,59.20
2018-09-26T13:53:57.628Z,59.70
2018-09-26T13:56:27.320Z,58.50
2018-09-26T13:58:57.199Z,60.80
2018-09-26T14:01:26.923Z,60.20
2018-09-26T14:03:56.369Z,60.00
2018-09-26T14:06:25.624Z,60.30
2018-09-26T14:08:54.870Z,61.10
2018-09-26T14:11:24.480Z,61.50
2018-09-26T14:13:53.741Z,61.60
2018-09-26T14:16:22.967Z,65.10
2018-09-26T14:18:52.702Z,64.50
2018-09-26T14:21:21.909Z,64.10
2018-09-26T14:23:51.196Z,67.50
2018-09-26T14:26:20.660Z,66.90
2018-09-26T14:28:50.536Z,65.10
2018-09-26T14:31:20.102Z,69.10
2018-09-26T14:33:49.493Z,67.50
2018-09-26T14:36:19.017Z,67.50
2018-09-26T14:38:49.438Z,68.00
2018-09-26T14:41:19.019Z,71.00
2018-09-26T14:43:48.299Z,68.60
2018-09-26T14:46:17.491Z,70.10
2018-09-26T14:48:47.135Z,74.80
2018-09-26T14:51:16.308Z,80.00
2018-09-26T14:53:45.684Z,72.60
2018-09-26T14:56:15.268Z,77.40
2018-09-26T14:58:44.671Z,79.40
2018-09-26T15:01:14.352Z,84.30
2018-09-26T15:03:43.634Z,88.00
2018-09-26T15:06:13.156Z,91.00
2018-09-26T15:08:43.448Z,93.60
2018-09-26T15:11:12.633Z,93.20
2018-09-26T15:13:42.157Z,99.90
2018-09-26T15:16:11.939Z,99.90
2018-09-26T15:18:41.780Z,99.90
2018-09-26T15:21:11.999Z,99.90
2018-09-26T15:23:41.715Z,99.90
2018-09-26T15:26:11.443Z,99.90
2018-09-26T15:28:40.845Z,99.90
2018-09-26T15:31:10.266Z,99.90
2018-09-26T15:33:39.836Z,99.90
2018-09-26T15:36:09.049Z,99.90
2018-09-26T15:38:38.619Z,99.90
2018-09-26T15:41:08.462Z,99.90
2018-09-26T15:43:37.862Z,99.90
2018-09-26T15:46:07.106Z,99.90
2018-09-26T15:48:37.192Z,99.90
2018-09-26T15:51:06.855Z,99.90
2018-09-26T15:53:36.204Z,99.90
2018-09-26T15:56:05.773Z,99.90
2018-09-26T15:58:35.311Z,99.90
2018-09-26T16:01:04.513Z,99.90
2018-09-26T16:03:34.158Z,99.90
2018-09-26T16:06:03.889Z,99.90
2018-09-26T16:08:33.305Z,99.90
2018-09-26T16:11:02.810Z,99.90
2018-09-26T16:13:32.300Z,99.90
2018-09-26T16:16:01.941Z,99.90
2018-09-26T16:18:31.683Z,99.90
2018-09-26T16:21:00.978Z,99.90
2018-09-26T16:23:30.395Z,99.90
2018-09-26T16:25:59.823Z,99.90
2018-09-26T16:28:29.365Z,99.90
2018-09-26T16:30:59.292Z,99.90
2018-09-26T16:33:28.466Z,99.90
2018-09-26T16:35:57.883Z,99.90
2018-09-26T16:38:27.378Z,99.90
2018-09-26T16:40:57.038Z,99.90
2018-09-26T16:43:26.900Z,99.90
2018-09-26T16:45:56.186Z,99.90
2018-09-26T16:48:25.628Z,99.90
2018-09-26T16:50:55.764Z,99.90
2018-09-26T16:53:25.459Z,99.90
2018-09-26T16:55:54.741Z,99.90
2018-09-26T16:58:24.539Z,99.90
2018-09-26T17:00:53.928Z,99.90
2018-09-26T17:03:23.118Z,99.90
2018-09-26T17:05:52.578Z,99.90
2018-09-26T17:08:21.955Z,99.90
2018-09-26T17:10:51.542Z,99.90
2018-09-26T17:13:21.192Z,99.90
2018-09-26T17:15:50.677Z,99.90
2018-09-26T17:18:20.258Z,99.90
2018-09-26T17:20:49.663Z,99.90
2018-09-26T17:23:19.009Z,99.90
2018-09-26T17:25:48.404Z,99.90
2018-09-26T17:28:18.115Z,99.90
2018-09-26T17:30:47.385Z,99.90
2018-09-26T17:33:16.965Z,99.90
2018-09-26T17:35:46.120Z,99.90
2018-09-26T17:38:15.295Z,99.90
2018-09-26T17:40:44.716Z,99.90
2018-09-26T17:43:14.377Z,99.90
2018-09-26T17:45:43.571Z,99.90
2018-09-26T17:48:12.861Z,99.90
2018-09-26T17:50:43.355Z,99.90
2018-09-26T17:53:12.941Z,99.90
2018-09-26T17:55:42.386Z,99.90
2018-09-26T17:58:12.004Z,99.90
2018-09-26T18:00:41.667Z,99.90
2018-09-26T18:03:11.165Z,99.90
2018-09-26T18:05:40.486Z,99.90
2018-09-26T18:08:09.985Z,99.90
2018-09-26T18:10:39.463Z,99.90
2018-09-26T18:13:08.765Z,99.90
2018-09-26T18:15:38.020Z,99.90
2018-09-26T18:18:08.141Z,99.90
2018-09-26T18:20:37.648Z,99.90
2018-09-26T18:23:06.905Z,99.90
2018-09-26T18:25:36.211Z,99.90
2018-09-26T18:28:05.702Z,99.90
2018-09-26T18:30:35.128Z,99.90
2018-09-26T18:33:04.336Z,99.90
2018-09-26T18:35:33.588Z,99.90
2018-09-26T18:38:02.744Z,99.90
2018-09-26T18:40:32.000Z,99.90
2018-09-26T18:43:01.193Z,99.90
2018-09-26T18:45:30.422Z,99.90
2018-09-26T18:48:01.121Z,99.90
2018-09-26T18:50:30.682Z,99.90
2018-09-26T18:53:00.004Z,99.90
2018-09-26T18:55:30.228Z,99.90
2018-09-26T18:58:00.034Z,99.90
2018-09-26T19:00:29.708Z,99.90
2018-09-26T19:02:59.375Z,99.90
2018-09-26T19:05:28.745Z,99.90
2018-09-26T19:10:45.036Z,99.90
2018-09-26T19:13:15.270Z,99.90
2018-09-26T19:15:45.054Z,99.90
2018-09-26T19:18:14.782Z,99.90
2018-09-26T19:20:44.799Z,99.90
2018-09-26T19:23:14.294Z,99.90
2018-09-26T19:25:43.514Z,99.90
2018-09-26T19:28:12.973Z,99.90
2018-09-26T19:30:42.644Z,99.90
2018-09-26T19:33:12.123Z,99.90
2018-09-26T19:35:41.538Z,99.90
2018-09-26T19:38:11.100Z,99.90
2018-09-26T19:40:41.191Z,99.90
2018-09-26T19:43:10.734Z,99.90
2018-09-26T19:45:41.516Z,99.90
2018-09-26T19:48:10.909Z,99.90
2018-09-26T19:50:40.347Z,99.90
2018-09-26T19:53:09.913Z,99.90
2018-09-26T19:55:39.228Z,99.90
2018-09-26T19:58:08.619Z,99.90
2018-09-26T20:00:38.103Z,99.90
2018-09-26T20:03:07.547Z,99.90
2018-09-26T20:05:37.470Z,99.90
2018-09-26T20:08:07.509Z,99.90
2018-09-26T20:10:37.152Z,99.90
2018-09-26T20:13:07.097Z,99.90
2018-09-26T20:15:37.287Z,99.90
2018-09-26T20:18:07.799Z,99.90
2018-09-26T20:20:37.628Z,99.90
2018-09-26T20:23:07.185Z,99.90
2018-09-26T20:25:36.914Z,99.90
2018-09-26T20:28:06.743Z,99.90
2018-09-26T20:30:36.114Z,99.90
2018-09-26T20:33:05.356Z,99.90
2018-09-26T20:35:34.637Z,99.90
2018-09-26T20:38:03.970Z,99.90
2018-09-26T20:40:33.009Z,99.90
2018-09-26T20:43:04.774Z,99.90
2018-09-26T20:45:35.041Z,99.90
2018-09-26T20:48:04.448Z,99.90
2018-09-26T20:50:34.420Z,99.90
2018-09-26T20:53:04.004Z,99.90
2018-09-26T20:55:33.287Z,99.90
2018-09-26T20:58:02.612Z,99.90
2018-09-26T21:00:31.943Z,99.90
2018-09-26T21:03:04.355Z,99.90
2018-09-26T21:05:33.583Z,99.90
2018-09-26T21:08:03.137Z,99.90
2018-09-26T21:10:32.960Z,99.90
2018-09-26T21:13:02.990Z,99.90
2018-09-26T21:15:32.568Z,99.90
2018-09-26T21:18:01.933Z,99.90
2018-09-26T21:20:31.229Z,99.90
2018-09-26T21:23:00.733Z,99.90
2018-09-26T21:25:30.009Z,99.90
2018-09-26T21:27:59.294Z,99.90
2018-09-26T21:30:28.445Z,99.90
2018-09-26T21:32:58.534Z,99.90
2018-09-26T21:35:28.433Z,99.90
2018-09-26T21:37:57.979Z,99.90
2018-09-26T21:40:28.018Z,99.90
2018-09-26T21:42:57.721Z,99.90
2018-09-26T21:45:27.009Z,99.90
2018-09-26T21:47:56.573Z,99.90
2018-09-26T21:50:26.454Z,99.90
2018-09-26T21:52:56.090Z,99.90
2018-09-26T21:55:25.553Z,99.90
2018-09-26T21:57:54.709Z,99.90
2018-09-26T22:00:24.365Z,99.90
2018-09-26T22:02:53.662Z,99.90
2018-09-26T22:05:23.781Z,99.90
2018-09-26T22:07:53.088Z,99.90
2018-09-26T22:10:22.791Z,99.90
2018-09-26T22:12:53.225Z,99.90
2018-09-26T22:15:24.005Z,99.90
2018-09-26T22:17:54.635Z,99.90
2018-09-26T22:20:23.929Z,99.90
2018-09-26T22:22:54.337Z,99.90
2018-09-26T22:25:23.719Z,99.90
2018-09-26T22:27:52.675Z,99.90
2018-09-26T22:30:22.035Z,99.90
2018-09-26T22:32:51.493Z,99.90
2018-09-26T22:35:20.900Z,99.90
2018-09-26T22:37:50.199Z,99.90
2018-09-26T22:40:19.484Z,99.90
2018-09-26T22:42:48.781Z,99.90
2018-09-26T22:45:17.932Z,99.90
2018-09-26T22:47:47.600Z,99.90
2018-09-26T22:50:17.933Z,99.90
2018-09-26T22:52:47.442Z,99.90
2018-09-26T22:55:16.520Z,99.90
2018-09-26T22:57:45.743Z,99.90
2018-09-26T23:00:15.388Z,99.90
2018-09-26T23:02:44.702Z,99.90
2018-09-26T23:05:14.053Z,99.90
2018-09-26T23:07:43.992Z,99.90
2018-09-26T23:10:13.340Z,99.90
2018-09-26T23:12:42.764Z,99.90
2018-09-26T23:15:12.160Z,99.90
2018-09-26T23:17:41.435Z,99.90
2018-09-26T23:20:10.984Z,99.90
2018-09-26T23:22:40.283Z,99.90
2018-09-26T23:25:09.787Z,99.90
2018-09-26T23:27:39.025Z,99.90
2018-09-26T23:30:08.435Z,99.90
2018-09-26T23:32:38.080Z,99.90
2018-09-26T23:35:07.637Z,99.90
2018-09-26T23:37:36.960Z,99.90
2018-09-26T23:40:05.987Z,99.90
2018-09-26T23:42:35.586Z,99.90
2018-09-26T23:45:04.979Z,99.90
2018-09-26T23:47:34.360Z,99.90
2018-09-26T23:50:03.412Z,99.90
2018-09-26T23:52:32.719Z,99.90
2018-09-26T23:55:02.127Z,99.90
2018-09-26T23:57:31.661Z,99.90
